Terminal Aerodrome Forecast
Issued by NWS

Home | Current Version | Previous Version | Text Only | Print | Product List | Glossary On
Versions: 1 2 3 4 5 6 7 8 9 10 11 12 13 14 15 16 17
000
FTUS42 KJAX 251120
TAFCRG
TAF
KCRG 251120Z 2512/2612 28008KT P6SM SCT040
      TEMPO 2512/2514 BKN040
     FM251400 28011G18KT P6SM SCT040
     FM252300 24007KT P6SM SKC=

USA.gov is the U.S. government's official web portal to all federal, state and local government web resources and services.